Time;durP1;ratioP1;P1;durP2;ratioP2;P2;SDS_P1;SDS_P2;PMS_P1;PMS_P2;Temp;Humidity;BMP_temperature;BMP_pressure;BME280_temperature;BME280_humidity;BME280_pressure;Samples;Min_cycle;Max_cycle;Signal;HPM_P1;HPM_P2
2022/05/04 00:00:11;;;;;;;5.28;3.80;;;;;;;10.88;59.02;101313.44;4958709;28;20026;-90
2022/05/04 00:02:37;;;;;;;6.40;4.20;;;;;;;10.88;58.40;101310.00;4958112;28;20440;-90
2022/05/04 00:05:03;;;;;;;6.78;4.10;;;;;;;10.85;58.30;101303.19;4974664;28;20023;-91
2022/05/04 00:07:29;;;;;;;4.95;3.72;;;;;;;10.79;58.47;101306.03;4958320;28;20023;-91
2022/05/04 00:09:55;;;;;;;6.38;4.32;;;;;;;10.73;58.46;101310.59;4958095;28;20066;-92
2022/05/04 00:12:21;;;;;;;6.50;3.85;;;;;;;10.61;58.96;101306.72;4958073;28;20413;-90
2022/05/04 00:14:47;;;;;;;6.15;4.25;;;;;;;10.54;59.45;101298.38;4958784;28;20049;-91
2022/05/04 00:17:12;;;;;;;6.38;3.97;;;;;;;10.57;58.95;101306.00;4957903;28;20077;-91
2022/05/04 00:19:38;;;;;;;5.60;4.03;;;;;;;10.62;59.16;101317.03;4958222;28;20093;-91
2022/05/04 00:22:04;;;;;;;5.65;3.85;;;;;;;10.69;58.85;101304.69;4957878;28;20034;-91
2022/05/04 00:24:29;;;;;;;4.47;3.83;;;;;;;10.42;59.48;101288.50;4973878;28;20031;-90
2022/05/04 00:26:55;;;;;;;6.55;3.90;;;;;;;10.60;58.80;101313.63;4958066;28;20488;-91
2022/05/04 00:29:20;;;;;;;5.75;4.05;;;;;;;10.41;58.87;101283.34;4958280;28;20035;-90
2022/05/04 00:31:45;;;;;;;4.97;4.00;;;;;;;10.54;58.75;101305.28;4957753;28;20028;-91
2022/05/04 00:34:11;;;;;;;7.03;3.88;;;;;;;10.50;58.97;101309.72;4957891;28;20086;-91
2022/05/04 00:36:36;;;;;;;5.35;4.07;;;;;;;10.48;59.43;101306.34;4957870;28;20030;-90
2022/05/04 00:39:02;;;;;;;6.28;4.10;;;;;;;10.62;59.11;101306.69;4973723;28;20082;-91
2022/05/04 00:41:27;;;;;;;5.32;4.15;;;;;;;10.66;58.95;101302.22;4957519;28;20581;-92
2022/05/04 00:43:54;;;;;;;6.03;4.20;;;;;;;10.53;58.91;101301.88;4957895;28;20030;-91
2022/05/04 00:46:20;;;;;;;6.00;3.85;;;;;;;10.52;59.17;101299.31;4957269;28;20081;-91
2022/05/04 00:48:45;;;;;;;6.60;4.30;;;;;;;10.55;59.08;101304.38;4957493;28;20528;-91
2022/05/04 00:51:11;;;;;;;5.68;4.10;;;;;;;10.56;59.12;101306.06;4973671;28;20031;-90
2022/05/04 00:53:37;;;;;;;6.80;4.30;;;;;;;10.63;59.06;101316.13;4957523;28;20030;-91
2022/05/04 00:56:03;;;;;;;6.78;3.88;;;;;;;10.73;59.05;101308.03;4957620;28;20113;-91
2022/05/04 01:01:12;;;;;;;5.07;4.18;;;;;;;10.70;59.05;101310.72;4959914;28;20037;-90
2022/05/04 01:03:38;;;;;;;6.55;4.20;;;;;;;10.63;59.00;101310.97;4957449;28;20027;-90
2022/05/04 01:06:03;;;;;;;5.50;4.05;;;;;;;10.68;59.39;101304.75;4957560;28;20057;-90
2022/05/04 01:08:29;;;;;;;5.25;4.00;;;;;;;10.69;58.77;101302.09;4957378;28;20496;-89
2022/05/04 01:10:54;;;;;;;6.13;4.32;;;;;;;10.74;59.22;101304.53;4957049;28;20051;-92
2022/05/04 01:13:20;;;;;;;5.85;4.45;;;;;;;10.79;59.05;101307.75;4957192;28;20031;-90
2022/05/04 01:15:47;;;;;;;6.68;4.30;;;;;;;10.80;58.70;101309.44;4957095;28;20031;-91
2022/05/04 01:18:12;;;;;;;6.55;4.15;;;;;;;10.78;58.79;101311.25;4957207;28;20025;-90
2022/05/04 01:20:38;;;;;;;6.85;4.70;;;;;;;10.75;59.42;101319.16;4956898;28;20463;-92
2022/05/04 01:23:03;;;;;;;5.18;4.13;;;;;;;10.81;59.24;101311.13;4957190;28;20030;-91
2022/05/04 01:25:29;;;;;;;5.72;4.55;;;;;;;10.79;59.44;101318.13;4956937;28;20069;-91
2022/05/04 01:27:55;;;;;;;7.35;4.38;;;;;;;10.79;59.38;101320.72;4956575;28;20030;-90
2022/05/04 01:30:21;;;;;;;6.03;4.53;;;;;;;10.84;59.06;101313.63;4956929;28;20059;-91
2022/05/04 01:32:47;;;;;;;6.60;4.47;;;;;;;10.77;59.23;101314.75;4956791;28;20042;-90
2022/05/04 01:35:14;;;;;;;7.22;4.82;;;;;;;10.72;59.33;101311.50;4972870;28;20488;-91
2022/05/04 01:37:39;;;;;;;6.10;4.70;;;;;;;10.50;59.91;101306.28;4956871;28;20153;-91
2022/05/04 01:40:06;;;;;;;7.07;4.90;;;;;;;10.65;59.60;101330.75;4956535;28;20035;-91
2022/05/04 01:42:31;;;;;;;6.43;4.68;;;;;;;10.57;59.99;101316.34;4956174;28;20488;-90
2022/05/04 01:44:57;;;;;;;5.50;4.50;;;;;;;10.68;59.51;101321.13;4956427;28;20333;-91
2022/05/04 01:47:22;;;;;;;8.25;4.60;;;;;;;10.66;59.99;101322.09;4956712;28;20595;-91
2022/05/04 01:49:48;;;;;;;6.78;4.72;;;;;;;10.66;59.66;101317.75;4956293;28;20551;-89
2022/05/04 01:52:13;;;;;;;6.82;4.65;;;;;;;10.52;59.95;101307.94;4956628;28;20103;-91
2022/05/04 01:54:39;;;;;;;8.45;4.70;;;;;;;10.54;60.09;101320.81;4940565;28;20035;-91
2022/05/04 01:57:04;;;;;;;7.85;4.90;;;;;;;10.54;60.15;101318.22;4955599;28;20037;-91
2022/05/04 01:59:30;;;;;;;6.82;4.63;;;;;;;10.35;60.30;101307.72;4956373;28;20033;-91
2022/05/04 02:01:56;;;;;;;6.97;4.93;;;;;;;10.45;60.20;101321.16;4972277;28;20408;-91
2022/05/04 02:04:22;;;;;;;8.23;5.18;;;;;;;10.41;60.16;101317.81;4956142;28;20041;-90
2022/05/04 02:06:47;;;;;;;6.28;4.88;;;;;;;10.33;59.88;101330.22;4956244;28;20031;-91
2022/05/04 02:09:13;;;;;;;6.63;4.80;;;;;;;10.27;60.00;101325.25;4955679;28;20062;-90
2022/05/04 02:11:38;;;;;;;5.63;4.50;;;;;;;10.22;60.22;101334.91;4952508;29;20130;-91
2022/05/04 02:14:04;;;;;;;7.35;4.55;;;;;;;10.05;60.87;101310.50;4952898;29;20031;-90
2022/05/04 02:16:30;;;;;;;7.15;4.90;;;;;;;10.12;60.47;101334.38;4952782;29;20035;-90
2022/05/04 02:18:56;;;;;;;8.18;4.55;;;;;;;9.97;60.72;101333.19;4952843;29;20035;-91
2022/05/04 02:21:21;;;;;;;6.75;4.72;;;;;;;9.90;61.32;101326.53;4953088;29;20500;-91
2022/05/04 02:23:47;;;;;;;5.43;4.32;;;;;;;9.93;61.58;101323.00;4952655;29;20042;-89
2022/05/04 02:26:12;;;;;;;6.10;4.47;;;;;;;10.01;61.13;101323.56;4952629;29;20147;-90
2022/05/04 02:28:38;;;;;;;5.70;4.05;;;;;;;10.05;61.06;101328.59;4952548;29;20490;-91
2022/05/04 02:31:03;;;;;;;5.10;4.15;;;;;;;10.05;61.24;101338.94;4968794;28;20023;-90
2022/05/04 02:33:29;;;;;;;5.68;4.10;;;;;;;10.06;61.10;101332.84;4952558;29;20468;-91
2022/05/04 02:38:38;;;;;;;5.72;4.30;;;;;;;9.95;61.32;101323.81;4952671;29;20082;-90
2022/05/04 02:41:03;;;;;;;5.28;4.18;;;;;;;10.07;61.00;101328.53;4952210;29;20027;-91
2022/05/04 02:43:29;;;;;;;6.53;4.32;;;;;;;10.11;60.90;101339.59;4952477;29;20032;-91
2022/05/04 02:45:56;;;;;;;8.73;4.20;;;;;;;9.97;60.77;101324.59;4952454;29;20505;-91
2022/05/04 02:48:21;;;;;;;5.55;3.90;;;;;;;10.02;61.09;101341.59;4952254;29;20031;-91
2022/05/04 02:50:47;;;;;;;5.18;3.70;;;;;;;10.04;61.28;101344.16;4952341;29;20038;-90
2022/05/04 02:53:12;;;;;;;7.43;4.00;;;;;;;9.90;60.81;101325.69;4952322;29;20036;-90
2022/05/04 02:55:38;;;;;;;5.38;4.25;;;;;;;9.96;61.57;101343.56;4936088;29;20038;-91
2022/05/04 02:58:03;;;;;;;5.45;3.83;;;;;;;10.09;62.12;101346.56;4952750;28;20136;-91
2022/05/04 03:00:29;;;;;;;5.50;3.95;;;;;;;10.17;61.22;101335.06;4952489;29;20118;-92
2022/05/04 03:02:54;;;;;;;5.88;3.63;;;;;;;10.48;61.84;101337.41;4952257;28;20113;-89
2022/05/04 03:05:20;;;;;;;5.05;3.70;;;;;;;11.27;59.39;101330.03;4951562;29;20481;-88
2022/05/04 03:07:46;;;;;;;4.30;3.13;;;;;;;12.15;56.46;101341.84;4951689;28;20034;-88
2022/05/04 03:10:13;;;;;;;4.10;3.30;;;;;;;12.54;53.84;101351.38;4969916;28;20424;-89
2022/05/04 03:12:39;;;;;;;4.32;3.20;;;;;;;12.93;52.60;101335.69;4955700;29;20035;-88
2022/05/04 03:15:05;;;;;;;5.13;3.63;;;;;;;12.71;52.62;101333.25;4955280;29;20023;-89
2022/05/04 03:17:30;;;;;;;6.55;3.33;;;;;;;12.50;53.37;101331.66;4955258;29;20050;-88
2022/05/04 03:19:56;;;;;;;12.07;3.75;;;;;;;12.33;53.08;101322.88;4955460;29;20468;-89
2022/05/04 03:22:21;;;;;;;55.33;6.93;;;;;;;12.85;52.19;101327.41;4971727;28;20023;-89
2022/05/04 03:24:47;;;;;;;8.30;3.63;;;;;;;13.34;51.39;101344.13;4955298;29;20033;-88
2022/05/04 03:27:13;;;;;;;10.38;3.80;;;;;;;13.85;49.31;101334.63;4955687;28;20030;-88
2022/05/04 03:29:38;;;;;;;8.07;3.50;;;;;;;13.58;49.77;101321.28;4973356;28;20120;-88
2022/05/04 03:32:04;;;;;;;7.03;3.45;;;;;;;13.44;49.67;101347.09;4958122;28;20027;-87
2022/05/04 03:34:30;;;;;;;7.45;3.72;;;;;;;12.85;51.50;101327.41;4957979;28;20037;-88
2022/05/04 03:36:57;;;;;;;22.05;4.15;;;;;;;12.47;52.13;101334.38;4974489;28;20064;-88
2022/05/04 03:39:23;;;;;;;5.55;3.78;;;;;;;12.25;52.84;101353.50;4958096;28;20046;-89
2022/05/04 03:41:49;;;;;;;28.25;5.22;;;;;;;12.01;53.64;101364.97;4975409;28;20408;-89
2022/05/04 03:44:15;;;;;;;8.75;4.07;;;;;;;11.76;54.26;101359.94;4958151;28;20070;-89
2022/05/04 03:46:44;;;;;;;10.55;4.30;;;;;;;11.62;55.04;101363.13;4957814;28;20428;-91
2022/05/04 03:49:10;;;;;;;23.65;4.47;;;;;;;11.52;55.59;101367.00;4958439;28;20108;-89
2022/05/04 03:51:36;;;;;;;18.88;4.38;;;;;;;11.37;56.38;101352.06;4957844;28;20467;-88
2022/05/04 03:54:01;;;;;;;9.18;4.07;;;;;;;11.37;56.39;101367.59;4973517;28;20026;-89
2022/05/04 03:56:27;;;;;;;13.05;8.05;;;;;;;11.31;56.59;101365.28;4958183;28;20039;-89
2022/05/04 03:58:52;;;;;;;111.00;70.88;;;;;;;11.13;57.65;101362.50;4973268;28;20031;-89
2022/05/04 04:01:18;;;;;;;9.98;7.10;;;;;;;10.99;57.72;101351.84;4957218;28;20030;-89
2022/05/04 04:03:44;;;;;;;9.13;5.88;;;;;;;11.06;57.71;101373.16;4973470;28;20138;-88
2022/05/04 04:06:10;;;;;;;8.68;6.30;;;;;;;11.03;58.10;101363.78;4971935;28;20146;-89
2022/05/04 04:08:35;;;;;;;10.02;5.88;;;;;;;11.04;58.15;101375.81;4972603;28;20082;-90
2022/05/04 04:11:01;;;;;;;8.85;4.72;;;;;;;11.00;58.63;101373.38;4957153;28;20519;-83
2022/05/04 04:13:26;;;;;;;9.30;5.18;;;;;;;11.05;58.34;101366.31;4973251;28;20058;-84
2022/05/04 04:15:52;;;;;;;6.65;3.78;;;;;;;10.95;58.25;101352.88;4968296;28;20039;-86
2022/05/04 04:18:22;;;;;;;8.75;4.03;;;;;;;11.04;58.34;101368.06;4971164;28;20481;-88
2022/05/04 04:23:32;;;;;;;5.20;3.65;;;;;;;11.07;57.74;101362.75;4972632;28;20088;-92
2022/05/04 04:25:58;;;;;;;5.55;4.03;;;;;;;11.12;57.73;101363.41;4973246;28;20069;-85
2022/05/04 04:28:23;;;;;;;6.70;4.20;;;;;;;11.16;57.93;101369.31;4987193;28;20062;-88
2022/05/04 04:30:49;;;;;;;13.52;4.32;;;;;;;11.21;57.45;101367.41;4953577;29;20031;-92
2022/05/04 04:33:14;;;;;;;7.05;3.78;;;;;;;11.29;57.13;101377.44;4954049;29;20078;-88
2022/05/04 04:35:40;;;;;;;9.30;3.85;;;;;;;11.36;57.19;101382.31;4954407;29;20062;-91
2022/05/04 04:38:07;;;;;;;7.55;3.70;;;;;;;11.40;57.29;101383.84;4954518;29;20031;-89
2022/05/04 04:40:32;;;;;;;6.20;3.78;;;;;;;11.40;56.39;101383.00;4972802;28;20038;-88
2022/05/04 04:43:00;;;;;;;7.78;4.25;;;;;;;11.19;56.82;101331.16;4973593;28;20030;-91
2022/05/04 04:45:30;;;;;;;5.20;3.53;;;;;;;11.49;55.47;101369.69;4957291;28;20026;-92
2022/05/04 04:47:58;;;;;;;4.28;3.05;;;;;;;11.47;55.39;101372.34;4972302;28;20026;-88
2022/05/04 04:50:24;;;;;;;5.85;3.67;;;;;;;11.62;55.22;101381.25;4956947;28;20034;-87
2022/05/04 04:52:50;;;;;;;7.85;4.45;;;;;;;11.66;54.93;101385.41;4950216;28;20055;-89
2022/05/04 04:55:16;;;;;;;6.85;2.97;;;;;;;11.60;54.93;101359.75;4950840;29;20400;-91
2022/05/04 04:57:43;;;;;;;6.97;3.20;;;;;;;11.70;54.91;101375.72;4972069;28;20035;-89
2022/05/04 05:00:10;;;;;;;5.82;3.70;;;;;;;11.78;54.78;101373.66;4954899;29;20027;-90
2022/05/04 05:02:36;;;;;;;5.68;3.38;;;;;;;11.87;54.91;101382.84;4952655;29;20027;-88
2022/05/04 05:05:02;;;;;;;10.07;5.20;;;;;;;12.00;55.89;101373.66;4955135;28;20046;-90
2022/05/04 05:07:30;;;;;;;7.75;5.13;;;;;;;12.30;55.46;101387.88;4939509;28;20389;-92
2022/05/04 05:09:56;;;;;;;12.90;5.00;;;;;;;12.41;55.30;101379.63;4970379;28;20050;-91
2022/05/04 05:12:22;;;;;;;6.78;4.03;;;;;;;12.57;53.64;101364.19;4970213;28;20077;-91
2022/05/04 05:17:46;;;;;;;5.15;3.65;;;;;;;12.43;54.22;101357.03;4942063;28;20047;-92
2022/05/04 05:20:12;;;;;;;5.95;3.22;;;;;;;12.47;54.07;101362.94;4950606;28;20031;-89
2022/05/04 05:22:37;;;;;;;5.13;3.22;;;;;;;12.61;54.48;101370.94;4965412;28;20023;-85
2022/05/04 05:25:04;;;;;;;7.13;4.47;;;;;;;12.61;54.48;101342.41;4966189;28;20027;-90
2022/05/04 05:27:30;;;;;;;5.97;4.47;;;;;;;13.02;53.82;101374.22;4968039;28;20058;-89
2022/05/04 05:29:56;;;;;;;9.27;3.33;;;;;;;13.11;52.20;101359.97;4928333;28;20035;-88
2022/05/04 05:32:21;;;;;;;11.75;4.78;;;;;;;13.05;52.14;101347.25;4950582;28;20037;-91
2022/05/04 05:34:47;;;;;;;9.15;4.18;;;;;;;13.32;52.83;101374.53;4967363;28;20126;-94
2022/05/04 05:37:13;;;;;;;32.55;4.95;;;;;;;13.45;53.05;101370.41;4973393;28;21020;-86
2022/05/04 05:39:40;;;;;;;34.70;5.35;;;;;;;13.71;52.97;101383.91;4965967;28;20046;-90
2022/05/04 05:42:06;;;;;;;67.50;10.43;;;;;;;14.02;51.94;101375.38;4952575;28;20066;-91
2022/05/04 05:44:31;;;;;;;195.30;29.15;;;;;;;14.46;51.91;101360.09;4946120;28;20022;-88
2022/05/04 05:46:57;;;;;;;20.13;5.05;;;;;;;14.53;49.62;101381.41;4964340;28;20042;-87
2022/05/04 05:49:22;;;;;;;20.42;5.68;;;;;;;14.62;49.85;101384.38;4979142;28;20030;-89
2022/05/04 05:51:48;;;;;;;9.05;3.33;;;;;;;14.69;48.88;101373.63;4948008;28;21653;-88
2022/05/04 05:54:14;;;;;;;62.13;6.97;;;;;;;14.86;49.56;101376.16;4962616;28;20039;-87
2022/05/04 05:56:40;;;;;;;14.23;4.68;;;;;;;14.96;48.11;101372.13;4959764;28;20523;-88
2022/05/04 05:59:06;;;;;;;7.13;3.38;;;;;;;15.09;48.19;101380.94;4949810;28;20035;-91
2022/05/04 06:01:32;;;;;;;14.43;6.90;;;;;;;15.17;48.56;101359.66;4920420;28;20039;-86
2022/05/04 06:03:57;;;;;;;7.95;4.45;;;;;;;15.39;47.10;101378.38;4962287;28;20408;-86
2022/05/04 06:06:23;;;;;;;9.30;6.10;;;;;;;15.57;46.71;101373.88;4975723;28;20045;-87
2022/05/04 06:08:48;;;;;;;10.18;6.05;;;;;;;15.70;47.43;101381.84;4979347;28;20086;-85
2022/05/04 06:11:14;;;;;;;13.07;6.05;;;;;;;15.68;47.63;101363.66;4961977;28;20424;-84
2022/05/04 06:13:39;;;;;;;12.57;6.13;;;;;;;15.93;46.46;101381.34;4961588;28;20061;-90
2022/05/04 06:16:05;;;;;;;42.63;7.72;;;;;;;16.10;46.83;101389.91;4966842;28;20027;-90
2022/05/04 06:18:30;;;;;;;7.03;3.45;;;;;;;16.24;46.07;101382.13;4942498;28;20034;-89
2022/05/04 06:20:59;;;;;;;5.85;3.13;;;;;;;16.41;46.43;101384.50;4958254;28;20027;-88
2022/05/04 06:23:24;;;;;;;6.50;4.10;;;;;;;16.59;45.81;101377.31;4948365;29;20082;-84
2022/05/04 06:25:50;;;;;;;4.22;3.20;;;;;;;16.65;44.63;101358.66;4962513;28;20035;-88
2022/05/04 06:28:15;;;;;;;16.30;3.80;;;;;;;16.88;43.53;101381.59;4958671;28;20030;-88
2022/05/04 06:36:08;;;;;;;6.40;3.50;;;;;;;17.00;43.03;101366.91;4960564;28;20050;-84
2022/05/04 06:38:35;;;;;;;4.95;3.03;;;;;;;17.16;42.41;101366.78;4975735;28;20024;-92
2022/05/04 06:41:00;;;;;;;10.60;4.75;;;;;;;17.31;43.73;101371.00;4963943;28;20096;-91
2022/05/04 06:43:26;;;;;;;6.63;3.25;;;;;;;17.42;40.69;101376.38;4963990;28;20497;-90
2022/05/04 06:45:51;;;;;;;3.22;2.47;;;;;;;17.58;40.24;101372.72;4945008;28;20058;-88
2022/05/04 06:48:17;;;;;;;6.15;3.47;;;;;;;17.69;40.15;101371.09;4948740;28;20504;-87
2022/05/04 06:50:43;;;;;;;8.95;3.88;;;;;;;17.95;39.73;101392.09;4962007;28;20051;-93
2022/05/04 06:53:08;;;;;;;4.53;2.75;;;;;;;17.96;40.43;101384.13;4960443;28;20503;-87
2022/05/04 06:55:34;;;;;;;7.30;3.30;;;;;;;18.11;40.10;101381.41;4941300;28;20042;-85
2022/05/04 06:57:59;;;;;;;7.80;2.92;;;;;;;18.18;39.45;101377.41;4957304;28;20039;-87
2022/05/04 07:00:25;;;;;;;6.68;3.08;;;;;;;18.35;38.91;101395.44;4952223;28;20125;-86
2022/05/04 07:02:50;;;;;;;8.00;3.10;;;;;;;18.39;38.43;101391.66;4961288;28;20026;-85
2022/05/04 07:05:16;;;;;;;9.07;3.30;;;;;;;18.48;38.79;101391.00;4959328;28;20034;-88
2022/05/04 07:07:41;;;;;;;4.50;3.10;;;;;;;18.48;38.53;101379.69;4956113;28;20038;-85
2022/05/04 07:10:08;;;;;;;4.13;2.60;;;;;;;18.70;39.24;101376.44;4976600;28;20145;-83
2022/05/04 07:12:33;;;;;;;6.60;2.83;;;;;;;18.86;37.97;101377.00;4977130;28;20158;-88
2022/05/04 07:14:59;;;;;;;6.25;3.42;;;;;;;18.84;38.57;101360.53;4962914;28;20038;-87
2022/05/04 07:17:25;;;;;;;4.20;2.50;;;;;;;19.02;37.70;101361.00;4971542;28;20031;-85
2022/05/04 07:19:50;;;;;;;7.00;3.20;;;;;;;19.41;39.47;101370.38;4956673;28;20144;-88
2022/05/04 07:22:16;;;;;;;12.80;5.18;;;;;;;19.39;37.45;101341.63;4960494;28;20812;-88
2022/05/04 07:24:42;;;;;;;6.95;3.70;;;;;;;19.51;37.76;101371.34;4960647;28;20125;-83
2022/05/04 07:27:07;;;;;;;38.67;8.88;;;;;;;19.47;37.72;101376.00;4961154;28;20592;-85
2022/05/04 07:29:35;;;;;;;8.48;3.80;;;;;;;19.65;37.06;101384.28;4945044;28;20693;-90
2022/05/04 07:32:01;;;;;;;5.80;2.67;;;;;;;19.68;36.07;101378.84;4943777;28;20034;-88
2022/05/04 07:34:27;;;;;;;13.15;3.55;;;;;;;19.75;37.39;101380.03;4962099;28;20039;-90
2022/05/04 07:36:52;;;;;;;5.07;3.10;;;;;;;19.95;37.05;101377.69;4949039;28;20086;-82
2022/05/04 07:44:46;;;;;;;36.90;8.90;;;;;;;19.88;37.09;101384.38;4966784;28;20471;-92
2022/05/04 07:47:11;;;;;;;6.10;3.33;;;;;;;19.92;36.81;101375.28;4968174;28;20035;-86
2022/05/04 07:49:37;;;;;;;4.95;3.15;;;;;;;20.03;38.07;101375.31;4965556;28;20149;-88
2022/05/04 07:52:03;;;;;;;6.40;3.30;;;;;;;20.10;37.93;101384.41;4982711;28;20117;-88
2022/05/04 07:54:28;;;;;;;10.82;7.45;;;;;;;20.07;37.84;101376.75;4969468;28;20481;-85
2022/05/04 07:56:54;;;;;;;10.10;4.50;;;;;;;20.13;36.66;101383.31;4914185;28;20058;-90
2022/05/04 07:59:20;;;;;;;8.52;3.65;;;;;;;20.24;37.58;101384.16;4930673;28;20543;-89
2022/05/04 08:04:29;;;;;;;4.13;2.67;;;;;;;20.58;36.33;101392.06;4966302;28;20433;-86
2022/05/04 08:06:54;;;;;;;2.88;2.55;;;;;;;20.46;35.75;101364.13;4946012;28;20039;-86
2022/05/04 08:09:20;;;;;;;3.95;2.70;;;;;;;20.45;36.49;101388.72;4973798;28;20035;-85
2022/05/04 08:11:46;;;;;;;7.70;3.70;;;;;;;20.46;36.50;101395.69;4985535;28;20054;-91
2022/05/04 08:14:12;;;;;;;7.75;4.10;;;;;;;20.34;36.48;101387.72;4969661;28;20031;-86
2022/05/04 08:16:39;;;;;;;3.40;2.88;;;;;;;20.46;36.74;101385.16;4947219;28;20026;-85
2022/05/04 08:19:04;;;;;;;4.95;2.95;;;;;;;20.46;36.77;101391.25;4966321;28;20082;-84
2022/05/04 08:21:30;;;;;;;9.10;4.43;;;;;;;20.54;37.35;101401.13;4948783;28;20141;-83
2022/05/04 08:23:56;;;;;;;6.15;2.67;;;;;;;20.58;36.14;101399.97;4948921;28;20143;-83
2022/05/04 08:26:21;;;;;;;4.15;2.60;;;;;;;20.73;35.96;101396.09;4968216;28;20416;-84
2022/05/04 08:28:47;;;;;;;4.25;2.30;;;;;;;20.64;35.74;101365.28;4953937;28;20425;-82
2022/05/04 08:31:12;;;;;;;4.18;2.78;;;;;;;20.75;36.52;101369.72;4967192;28;20031;-84
2022/05/04 08:33:38;;;;;;;4.07;3.00;;;;;;;20.89;36.95;101393.09;4967415;28;20558;-84
2022/05/04 08:36:03;;;;;;;3.20;2.80;;;;;;;21.07;36.52;101390.78;4962901;28;20046;-87
2022/05/04 08:38:29;;;;;;;6.28;3.78;;;;;;;21.23;36.34;101390.34;4965937;28;20088;-85
2022/05/04 08:40:55;;;;;;;5.35;3.17;;;;;;;21.25;36.12;101378.75;4964177;28;20073;-87
2022/05/04 08:43:24;;;;;;;8.93;3.70;;;;;;;21.44;36.94;101381.59;4959493;28;20057;-85
2022/05/04 08:45:51;;;;;;;4.82;3.20;;;;;;;21.60;35.40;101381.13;4947868;28;20115;-84
2022/05/04 08:48:16;;;;;;;13.30;8.63;;;;;;;21.66;34.88;101395.59;4962885;28;20460;-85
2022/05/04 08:50:42;;;;;;;4.97;3.60;;;;;;;21.72;34.59;101387.16;4964999;28;20043;-93
2022/05/04 08:53:08;;;;;;;4.75;2.78;;;;;;;21.72;34.00;101381.91;4964248;28;20111;-93
2022/05/04 08:55:34;;;;;;;5.18;3.38;;;;;;;21.72;35.10;101376.63;4959772;28;20185;-91
2022/05/04 08:57:59;;;;;;;4.97;3.20;;;;;;;21.83;34.47;101363.41;4931158;28;20493;-87
2022/05/04 09:00:25;;;;;;;5.28;3.35;;;;;;;22.09;33.98;101376.19;4946672;28;20166;-87
2022/05/04 09:02:50;;;;;;;3.90;2.72;;;;;;;22.25;33.67;101381.81;4964158;28;20038;-90
2022/05/04 09:05:26;;;;;;;3.83;2.70;;;;;;;22.36;32.66;101371.19;4952229;28;20120;-90
2022/05/04 09:07:56;;;;;;;5.25;4.43;;;;;;;22.57;34.32;101377.22;4951584;28;20026;-88
2022/05/04 09:10:26;;;;;;;3.90;2.70;;;;;;;22.80;32.55;101380.44;4951428;28;20054;-91
2022/05/04 09:12:52;;;;;;;7.82;3.95;;;;;;;22.66;33.75;101377.38;4980747;28;20034;-90
2022/05/04 09:15:34;;;;;;;4.18;2.78;;;;;;;22.78;32.16;101381.56;4981632;28;20086;-85
2022/05/04 09:18:07;;;;;;;4.82;3.10;;;;;;;22.60;32.02;101370.81;4990285;28;20027;-91
2022/05/04 09:20:47;;;;;;;2.75;2.40;;;;;;;22.76;31.82;101368.50;4991254;28;20089;-89
2022/05/04 09:23:23;;;;;;;5.35;3.25;;;;;;;22.98;32.81;101369.25;4982936;28;20030;-89
2022/05/04 09:25:53;;;;;;;4.13;2.50;;;;;;;23.14;31.21;101357.19;4977160;28;20037;-87
2022/05/04 09:28:18;;;;;;;4.35;3.13;;;;;;;23.19;31.22;101368.16;4953468;28;20034;-82
2022/05/04 09:30:51;;;;;;;4.90;2.75;;;;;;;23.40;29.95;101373.31;4952976;28;20488;-84
2022/05/04 09:33:21;;;;;;;2.85;2.08;;;;;;;23.39;29.92;101328.56;4966831;28;20067;-86
2022/05/04 09:35:46;;;;;;;5.40;4.25;;;;;;;23.59;30.27;101330.22;4970657;28;20062;-83
2022/05/04 09:46:42;;;;;;;6.20;2.58;;;;;;;24.20;30.64;101361.47;4984626;28;20045;-88
2022/05/04 09:49:15;;;;;;;4.05;2.85;;;;;;;24.31;29.33;101358.66;4982246;28;20050;-87
2022/05/04 09:51:44;;;;;;;3.65;2.67;;;;;;;24.28;28.55;101344.84;4983507;28;20022;-91
2022/05/04 09:54:17;;;;;;;7.18;3.63;;;;;;;24.18;28.72;101336.13;4963023;28;20484;-89
2022/05/04 09:56:45;;;;;;;4.88;2.67;;;;;;;24.45;29.17;101340.63;4970626;28;20056;-89
2022/05/04 09:59:12;;;;;;;5.57;2.72;;;;;;;24.51;29.02;101332.13;4987846;28;20121;-86
2022/05/04 10:01:37;;;;;;;4.65;3.00;;;;;;;24.44;28.62;101341.63;4975900;28;20025;-85
2022/05/04 10:04:03;;;;;;;4.82;2.70;;;;;;;24.33;27.99;101339.19;4974067;28;20037;-85
2022/05/04 10:06:29;;;;;;;4.35;2.75;;;;;;;24.23;28.51;101345.31;4987090;28;20053;-84
2022/05/04 10:08:54;;;;;;;5.97;3.95;;;;;;;24.34;28.73;101336.38;4983365;28;20561;-87
2022/05/04 10:11:20;;;;;;;7.32;4.57;;;;;;;24.34;28.63;101309.94;4990585;28;20054;-92
2022/05/04 10:13:45;;;;;;;10.85;6.82;;;;;;;24.62;27.94;101337.19;4974865;28;20056;-86
2022/05/04 10:16:11;;;;;;;9.02;4.35;;;;;;;24.59;27.65;101311.06;4989628;28;20033;-85
2022/05/04 10:18:38;;;;;;;4.60;2.90;;;;;;;24.86;27.64;101326.84;4987995;28;20502;-95
2022/05/04 10:21:12;;;;;;;4.45;3.05;;;;;;;25.01;27.43;101332.47;5014327;28;20498;-87
2022/05/04 10:23:41;;;;;;;3.00;2.63;;;;;;;25.11;27.53;101316.53;4974223;28;20037;-87
2022/05/04 10:26:07;;;;;;;3.20;2.60;;;;;;;25.04;26.71;101321.59;4975460;28;20041;-91
2022/05/04 10:28:36;;;;;;;3.67;2.67;;;;;;;25.07;27.38;101318.66;4971732;28;20026;-86
2022/05/04 10:31:02;;;;;;;4.05;2.95;;;;;;;25.17;27.42;101307.97;4974824;28;20068;-90
2022/05/04 10:33:32;;;;;;;3.90;2.90;;;;;;;25.27;26.99;101306.06;4975371;28;20033;-87
2022/05/04 10:36:08;;;;;;;6.97;4.53;;;;;;;24.78;27.74;101265.94;4982898;28;20056;-85
2022/05/04 10:38:34;;;;;;;4.70;2.90;;;;;;;24.78;27.16;101297.69;4976473;28;20026;-90
2022/05/04 10:41:06;;;;;;;4.22;2.88;;;;;;;24.83;27.41;101302.50;4989957;28;20745;-91
2022/05/04 10:43:50;;;;;;;3.80;3.10;;;;;;;24.92;27.06;101292.84;4963266;28;20093;-87
2022/05/04 10:46:18;;;;;;;5.30;4.78;;;;;;;24.95;27.11;101300.47;5010692;28;20033;-88
2022/05/04 10:48:56;;;;;;;3.60;2.70;;;;;;;25.14;26.88;101297.69;5008305;28;20036;-87
2022/05/04 10:51:26;;;;;;;30.70;9.38;;;;;;;25.29;27.18;101290.03;5007622;28;20411;-88
2022/05/04 10:53:53;;;;;;;7.70;3.58;;;;;;;25.34;27.55;101293.84;4991701;28;20084;-85
2022/05/04 10:56:24;;;;;;;5.50;2.97;;;;;;;25.31;26.37;101283.59;5009203;28;20151;-90
2022/05/04 10:59:01;;;;;;;12.77;7.88;;;;;;;25.13;26.30;101280.13;4993275;28;20026;-91
2022/05/04 11:01:31;;;;;;;6.30;3.78;;;;;;;25.21;28.10;101277.56;4973395;28;20035;-89
2022/05/04 11:04:03;;;;;;;7.88;6.88;;;;;;;25.52;26.01;101285.88;4971693;28;20038;-84
2022/05/04 11:06:39;;;;;;;;;;;;;;;25.63;25.42;101282.13;4995054;28;20054;-84
2022/05/04 11:09:09;;;;;;;4.50;3.67;;;;;;;25.50;25.67;101269.31;4977371;28;19967;-84
2022/05/04 11:11:36;;;;;;;6.10;5.50;;;;;;;25.68;25.62;101274.53;4972240;28;20046;-86
2022/05/04 11:14:02;;;;;;;3.33;2.60;;;;;;;25.88;25.34;101270.69;4987671;28;20018;-84
2022/05/04 11:16:28;;;;;;;5.25;2.97;;;;;;;25.51;25.85;101270.97;4988481;28;20154;-91
2022/05/04 11:18:55;;;;;;;4.00;2.67;;;;;;;25.59;26.03;101262.25;4989275;28;20074;-89
2022/05/04 11:21:20;;;;;;;3.55;2.67;;;;;;;25.87;24.65;101262.91;4972804;28;20034;-84
2022/05/04 11:23:53;;;;;;;3.00;2.60;;;;;;;25.79;24.69;101239.03;4988091;28;20026;-87
2022/05/04 11:26:40;;;;;;;3.03;2.67;;;;;;;26.05;24.87;101260.16;5002605;28;20153;-91
2022/05/04 11:29:10;;;;;;;5.93;3.30;;;;;;;25.99;24.26;101249.22;4988698;28;20049;-86
2022/05/04 11:31:36;;;;;;;5.40;3.00;;;;;;;26.11;24.28;101246.25;4991876;28;20026;-90
2022/05/04 11:34:02;;;;;;;4.57;3.10;;;;;;;26.20;25.22;101248.78;4993639;28;20133;-83
2022/05/04 11:36:27;;;;;;;5.97;2.90;;;;;;;26.26;23.82;101252.63;4993151;28;20459;-90
2022/05/04 11:38:53;;;;;;;11.50;9.85;;;;;;;26.14;24.37;101230.84;4992379;28;20035;-85
2022/05/04 11:41:19;;;;;;;6.80;3.05;;;;;;;25.99;24.67;101235.13;5009114;28;20026;-85
2022/05/04 11:43:47;;;;;;;9.82;3.72;;;;;;;25.52;24.74;101232.06;4980210;28;20582;-85
2022/05/04 11:46:13;;;;;;;5.68;3.00;;;;;;;25.43;25.00;101241.78;4959062;28;20034;-85
2022/05/04 11:48:44;;;;;;;5.97;3.22;;;;;;;25.26;27.57;101246.13;4973677;28;20081;-88
2022/05/04 11:51:10;;;;;;;4.50;3.08;;;;;;;25.30;25.47;101247.50;4973474;28;20108;-83
2022/05/04 11:53:36;;;;;;;6.35;3.00;;;;;;;25.28;26.03;101216.88;4967143;28;20818;-87